createdAt,value
2022-10-29T00:01:35.959Z,102116.47
2022-10-29T00:04:08.079Z,102111.19
2022-10-29T00:06:40.056Z,102109.47
2022-10-29T00:09:12.019Z,102124.41
2022-10-29T00:11:43.913Z,102113.84
2022-10-29T00:14:16.929Z,102124.41
2022-10-29T00:16:48.888Z,102128.81
2022-10-29T00:19:20.824Z,102127.94
2022-10-29T00:21:52.889Z,102133.25
2022-10-29T00:24:24.810Z,102137.63
2022-10-29T00:26:56.709Z,102134.13
2022-10-29T00:29:28.644Z,102142.88
2022-10-29T00:32:00.626Z,102137.63
2022-10-29T00:34:32.569Z,102141.19
2022-10-29T00:37:05.501Z,102146.44
2022-10-29T00:39:37.449Z,102151.69
2022-10-29T00:42:17.007Z,102139.38
2022-10-29T00:44:48.937Z,102146.44
2022-10-29T00:47:24.372Z,102149.91
2022-10-29T00:50:08.865Z,102141.13
2022-10-29T00:52:45.951Z,102151.63
2022-10-29T00:55:19.969Z,102158.69
2022-10-29T00:57:55.391Z,102149.88
2022-10-29T01:00:28.043Z,102149.91
2022-10-29T01:03:00.257Z,102145.56
2022-10-29T01:05:34.677Z,102140.31
2022-10-29T01:08:07.303Z,102136.84
2022-10-29T01:11:06.887Z,102156.19
2022-10-29T01:14:16.926Z,102164.09
2022-10-29T01:17:03.748Z,102164.91
2022-10-29T01:19:59.780Z,102163.06
2022-10-29T01:23:02.846Z,102172.72
2022-10-29T01:26:34.249Z,102171.00
2022-10-29T01:29:19.629Z,102168.34
2022-10-29T01:32:05.477Z,102164.81
2022-10-29T01:34:50.265Z,102159.47
2022-10-29T01:37:57.492Z,102161.31
2022-10-29T01:40:42.450Z,102160.44
2022-10-29T01:43:35.022Z,102160.44
2022-10-29T01:46:10.535Z,102157.75
2022-10-29T01:48:51.711Z,102162.16
2022-10-29T01:51:33.418Z,102162.97
2022-10-29T01:54:11.191Z,102155.03
2022-10-29T01:56:43.278Z,102155.94
2022-10-29T01:59:28.657Z,102160.34
2022-10-29T02:02:23.383Z,102157.78
2022-10-29T02:07:50.607Z,102139.34
2022-10-29T02:10:39.514Z,102139.41
2022-10-29T02:13:13.079Z,102116.59
2022-10-29T02:15:53.057Z,102131.66
2022-10-29T02:18:25.240Z,102131.69
2022-10-29T02:20:57.295Z,102126.47
2022-10-29T02:23:29.385Z,102127.41
2022-10-29T02:26:01.361Z,102130.97
2022-10-29T02:28:33.276Z,102131.84
2022-10-29T02:31:06.001Z,102133.66
2022-10-29T02:33:37.922Z,102121.41
2022-10-29T02:36:10.109Z,102129.41
2022-10-29T02:38:41.988Z,102137.38
2022-10-29T02:41:13.951Z,102136.53
2022-10-29T02:43:45.910Z,102126.88
2022-10-29T02:46:23.742Z,102126.88
2022-10-29T02:48:55.842Z,102138.28
2022-10-29T02:51:27.773Z,102137.44
2022-10-29T02:53:59.681Z,102126.94
2022-10-29T02:56:31.632Z,102114.63
2022-10-29T02:59:05.340Z,102121.69
2022-10-29T03:01:39.820Z,102111.22
2022-10-29T03:04:12.138Z,102105.97
2022-10-29T03:06:44.113Z,102106.00
2022-10-29T03:09:16.065Z,102107.78
2022-10-29T03:11:48.533Z,102108.69
2022-10-29T03:14:20.439Z,102106.03
2022-10-29T03:16:52.367Z,102090.28
2022-10-29T03:19:24.254Z,102080.63
2022-10-29T03:21:56.215Z,102075.38
2022-10-29T03:24:28.143Z,102075.41
2022-10-29T03:27:00.041Z,102078.94
2022-10-29T03:29:32.000Z,102071.91
2022-10-29T03:32:03.962Z,102084.19
2022-10-29T03:34:35.851Z,102089.47
2022-10-29T03:37:07.745Z,102087.72
2022-10-29T03:39:39.642Z,102089.50
2022-10-29T03:42:11.605Z,102090.41
2022-10-29T03:44:43.507Z,102095.69
2022-10-29T03:47:15.582Z,102098.31
2022-10-29T03:49:47.463Z,102096.56
2022-10-29T03:52:19.422Z,102093.06
2022-10-29T03:54:51.321Z,102093.06
2022-10-29T03:57:23.547Z,102088.69
2022-10-29T03:59:56.420Z,102100.09
2022-10-29T04:02:28.509Z,102099.25
2022-10-29T04:05:00.474Z,102097.50
2022-10-29T04:07:32.405Z,102105.41
2022-10-29T04:10:04.872Z,102116.81
2022-10-29T04:12:36.773Z,102114.19
2022-10-29T04:15:09.247Z,102123.88
2022-10-29T04:17:41.173Z,102135.28
2022-10-29T04:20:27.880Z,102130.03
2022-10-29T04:24:12.011Z,102128.28
2022-10-29T04:28:17.806Z,102132.66
2022-10-29T04:28:52.154Z,102130.03
2022-10-29T04:31:24.095Z,102123.91
2022-10-29T04:33:56.081Z,102125.66
2022-10-29T04:36:28.030Z,102119.50
2022-10-29T04:38:59.921Z,102115.13
2022-10-29T04:41:32.242Z,102120.41
2022-10-29T04:44:04.199Z,102118.63
2022-10-29T04:46:36.147Z,102117.78
2022-10-29T04:49:08.107Z,102113.38
2022-10-29T04:51:40.242Z,102113.38
2022-10-29T04:54:12.176Z,102115.13
2022-10-29T04:56:44.085Z,102114.25
2022-10-29T04:59:16.002Z,102112.50
2022-10-29T05:01:47.896Z,102109.88
2022-10-29T05:04:19.828Z,102114.25
2022-10-29T05:06:51.727Z,102109.88
2022-10-29T05:09:23.680Z,102108.13
2022-10-29T05:11:55.613Z,102101.13
2022-10-29T05:14:27.601Z,102102.88
2022-10-29T05:16:59.599Z,102105.50
2022-10-29T05:19:31.610Z,102108.13
2022-10-29T05:22:03.540Z,102108.13
2022-10-29T05:24:35.436Z,102104.63
2022-10-29T05:27:08.182Z,102107.28
2022-10-29T05:29:40.154Z,102118.66
2022-10-29T05:32:12.067Z,102113.41
2022-10-29T05:34:44.490Z,102123.06
2022-10-29T05:37:16.694Z,102123.94
2022-10-29T05:39:48.606Z,102136.22
2022-10-29T05:42:20.515Z,102131.84
2022-10-29T05:44:52.436Z,102137.09
2022-10-29T05:47:24.377Z,102141.47
2022-10-29T05:49:56.310Z,102141.47
2022-10-29T05:52:28.272Z,102135.34
2022-10-29T05:55:00.276Z,102134.47
2022-10-29T05:57:32.379Z,102132.72
2022-10-29T06:00:05.290Z,102137.06
2022-10-29T06:02:37.304Z,102137.06
2022-10-29T06:05:09.461Z,102130.03
2022-10-29T06:07:43.298Z,102123.91
2022-10-29T06:10:15.499Z,102120.41
2022-10-29T06:12:47.423Z,102116.91
2022-10-29T06:15:20.034Z,102115.13
2022-10-29T06:17:52.167Z,102119.47
2022-10-29T06:20:24.138Z,102127.38
2022-10-29T06:22:58.393Z,102127.38
2022-10-29T06:25:30.898Z,102128.25
2022-10-29T06:28:05.889Z,102122.09
2022-10-29T06:30:38.248Z,102123.00
2022-10-29T06:33:10.160Z,102121.25
2022-10-29T06:35:42.182Z,102122.97
2022-10-29T06:38:14.660Z,102113.34
2022-10-29T06:40:53.872Z,102117.72
2022-10-29T06:43:25.885Z,102119.47
2022-10-29T06:45:57.796Z,102121.22
2022-10-29T06:48:29.833Z,102118.59
2022-10-29T06:51:01.804Z,102122.09
2022-10-29T06:53:33.708Z,102125.59
2022-10-29T06:56:05.737Z,102125.59
2022-10-29T06:58:37.650Z,102127.34
2022-10-29T07:01:09.550Z,102130.00
2022-10-29T07:03:41.528Z,102128.25
2022-10-29T07:06:13.879Z,102124.78
2022-10-29T07:08:45.767Z,102120.44
2022-10-29T07:11:17.943Z,102118.69
2022-10-29T07:13:49.858Z,102127.44
2022-10-29T07:16:21.934Z,102128.31
2022-10-29T07:18:54.193Z,102132.69
2022-10-29T07:21:26.117Z,102139.72
2022-10-29T07:23:58.208Z,102146.72
2022-10-29T07:26:30.134Z,102144.09
2022-10-29T07:29:02.121Z,102146.72
2022-10-29T07:31:34.113Z,102143.19
2022-10-29T07:34:06.015Z,102142.31
2022-10-29T07:36:37.954Z,102130.03
2022-10-29T07:39:09.944Z,102116.00
2022-10-29T07:41:41.888Z,102119.50
2022-10-29T07:44:13.829Z,102123.00
2022-10-29T07:46:45.813Z,102137.03
2022-10-29T07:49:17.749Z,102135.28
2022-10-29T07:51:49.738Z,102126.53
2022-10-29T07:54:21.674Z,102125.66
2022-10-29T07:56:53.622Z,102120.38
2022-10-29T07:59:25.854Z,102124.75
2022-10-29T08:01:57.952Z,102129.97
2022-10-29T08:04:29.917Z,102129.91
2022-10-29T08:07:02.094Z,102129.91
2022-10-29T08:09:34.082Z,102129.00
2022-10-29T08:12:07.207Z,102137.72
2022-10-29T08:14:39.179Z,102146.47
2022-10-29T08:17:11.143Z,102135.88
2022-10-29T08:19:43.110Z,102142.81
2022-10-29T08:22:15.026Z,102151.56
2022-10-29T08:24:47.015Z,102154.19
2022-10-29T08:27:18.973Z,102161.22
2022-10-29T08:29:50.976Z,102158.50
2022-10-29T08:32:22.877Z,102156.75
2022-10-29T08:34:56.232Z,102165.50
2022-10-29T08:37:28.417Z,102167.25
2022-10-29T08:40:00.455Z,102161.94
2022-10-29T08:42:54.893Z,102162.00
2022-10-29T08:45:49.789Z,102156.78
2022-10-29T08:48:46.669Z,102141.69
2022-10-29T08:51:34.301Z,102138.94
2022-10-29T08:54:30.355Z,102130.13
2022-10-29T08:57:12.650Z,102121.25
2022-10-29T09:00:21.945Z,102118.50
2022-10-29T09:03:00.009Z,102123.75
2022-10-29T09:05:50.978Z,102135.34
2022-10-29T09:08:52.392Z,102137.16
2022-10-29T09:12:18.257Z,102131.72
2022-10-29T09:15:12.279Z,102133.34
2022-10-29T09:18:28.226Z,102131.56
2022-10-29T09:21:33.749Z,102128.69
2022-10-29T09:24:08.971Z,102132.94
2022-10-29T09:27:05.382Z,102117.88
2022-10-29T09:29:55.397Z,102124.84
2022-10-29T09:32:38.657Z,102113.41
2022-10-29T09:35:19.940Z,102112.44
2022-10-29T09:37:59.490Z,102112.28
2022-10-29T09:40:39.779Z,102106.16
2022-10-29T09:43:45.827Z,102100.66
2022-10-29T09:46:34.191Z,102101.19
2022-10-29T09:49:11.714Z,102105.34
2022-10-29T09:52:12.473Z,102104.59
2022-10-29T09:54:44.398Z,102098.09
2022-10-29T09:57:22.715Z,102102.22
2022-10-29T09:59:57.225Z,102099.44
2022-10-29T10:02:38.132Z,102098.53
2022-10-29T10:05:16.945Z,102097.84
2022-10-29T10:08:04.045Z,102096.00
2022-10-29T10:10:54.613Z,102099.19
2022-10-29T10:13:36.680Z,102106.81
2022-10-29T10:16:08.647Z,102110.41
2022-10-29T10:21:34.518Z,102107.22
2022-10-29T10:24:37.458Z,102089.84
2022-10-29T10:27:18.473Z,102091.88
2022-10-29T10:30:07.064Z,102087.66
2022-10-29T10:32:39.029Z,102087.63
2022-10-29T10:35:31.482Z,102089.03
2022-10-29T10:38:10.174Z,102085.00
2022-10-29T10:40:43.118Z,102081.97
2022-10-29T10:43:24.705Z,102075.72
2022-10-29T10:46:00.616Z,102077.28
2022-10-29T10:51:26.660Z,102067.81
2022-10-29T10:54:01.630Z,102062.09
2022-10-29T10:56:52.699Z,102077.19
2022-10-29T10:59:55.840Z,102071.75
2022-10-29T11:02:52.409Z,102071.31
2022-10-29T11:05:41.797Z,102072.56
2022-10-29T11:08:39.632Z,102061.19
2022-10-29T11:11:19.651Z,102057.31
2022-10-29T11:13:52.249Z,102045.84
2022-10-29T11:16:45.720Z,102042.72
2022-10-29T11:19:46.042Z,102030.91
2022-10-29T11:22:35.014Z,102024.44
2022-10-29T11:25:48.183Z,102016.50
2022-10-29T11:28:24.810Z,102014.69
2022-10-29T11:31:09.211Z,102022.25
2022-10-29T11:33:57.236Z,102030.66
2022-10-29T11:36:36.734Z,102025.22
2022-10-29T11:39:51.671Z,102008.25
2022-10-29T11:42:23.696Z,102003.75
2022-10-29T11:44:59.054Z,102002.06
2022-10-29T11:48:03.992Z,101988.94
2022-10-29T11:51:23.855Z,101986.47
2022-10-29T11:54:22.739Z,101994.81
2022-10-29T11:57:00.691Z,101984.41
2022-10-29T12:00:19.127Z,101986.31
2022-10-29T12:03:24.541Z,101983.53
2022-10-29T12:06:30.786Z,101985.09
2022-10-29T12:09:25.025Z,101981.94
2022-10-29T12:12:18.885Z,101973.63
2022-10-29T12:15:27.520Z,101966.56
2022-10-29T12:18:17.672Z,101969.25
2022-10-29T12:21:01.662Z,101968.72
2022-10-29T12:24:37.954Z,101970.44
2022-10-29T12:27:26.274Z,101977.13
2022-10-29T12:30:04.471Z,101964.97
2022-10-29T12:33:09.597Z,101966.84
2022-10-29T12:35:47.708Z,101959.19
2022-10-29T12:38:41.267Z,101968.81
2022-10-29T12:41:25.180Z,101964.63
2022-10-29T12:44:25.997Z,101957.75
2022-10-29T12:47:21.226Z,101949.91
2022-10-29T12:50:42.301Z,101940.66
2022-10-29T12:53:34.013Z,101931.03
2022-10-29T12:56:08.409Z,101935.81
2022-10-29T12:58:48.878Z,101931.97
2022-10-29T13:01:50.086Z,101941.75
2022-10-29T13:04:30.448Z,101936.94
2022-10-29T13:07:23.473Z,101935.66
2022-10-29T13:10:24.041Z,101924.41
2022-10-29T13:13:07.488Z,101932.59
2022-10-29T13:15:45.505Z,101932.56
2022-10-29T13:19:03.888Z,101927.06
2022-10-29T13:21:56.772Z,101922.97
2022-10-29T13:24:30.468Z,101928.47
2022-10-29T13:27:27.829Z,101916.00
2022-10-29T13:30:25.765Z,101917.22
2022-10-29T13:32:58.170Z,101906.78
2022-10-29T13:35:30.253Z,101902.38
2022-10-29T13:38:16.392Z,101898.13
2022-10-29T13:41:29.435Z,101891.94
2022-10-29T13:44:11.731Z,101891.59
2022-10-29T13:47:04.481Z,101893.91
2022-10-29T13:49:49.925Z,101889.47
2022-10-29T13:52:22.795Z,101894.09
2022-10-29T13:55:01.545Z,101886.59
2022-10-29T13:57:50.876Z,101875.47
2022-10-29T14:00:23.247Z,101872.28
2022-10-29T14:03:01.620Z,101869.16
2022-10-29T14:05:39.409Z,101867.50
2022-10-29T14:08:25.173Z,101874.81
2022-10-29T14:10:59.570Z,101873.88
2022-10-29T14:13:52.290Z,101881.97
2022-10-29T14:16:31.251Z,101877.72
2022-10-29T14:19:21.744Z,101875.91
2022-10-29T14:21:55.388Z,101879.66
2022-10-29T14:24:27.336Z,101883.94
2022-10-29T14:27:07.800Z,101880.50
2022-10-29T14:29:39.757Z,101879.66
2022-10-29T14:32:19.386Z,101882.28
2022-10-29T14:34:52.667Z,101885.63
2022-10-29T14:37:39.387Z,101880.28
2022-10-29T14:40:23.042Z,101872.13
2022-10-29T14:42:56.860Z,101880.00
2022-10-29T14:45:31.374Z,101876.38
2022-10-29T14:48:10.934Z,101871.84
2022-10-29T14:50:51.494Z,101874.38
2022-10-29T14:53:35.333Z,101873.50
2022-10-29T14:56:18.930Z,101885.06
2022-10-29T14:58:50.999Z,101875.56
2022-10-29T15:01:23.255Z,101874.00
2022-10-29T15:04:01.919Z,101876.75
2022-10-29T15:06:34.030Z,101870.56
2022-10-29T15:09:20.328Z,101867.13
2022-10-29T15:12:18.622Z,101868.09
2022-10-29T15:14:53.040Z,101861.03
2022-10-29T15:17:31.057Z,101867.28
2022-10-29T15:20:07.425Z,101857.78
2022-10-29T15:22:42.860Z,101849.06
2022-10-29T15:25:29.505Z,101850.97
2022-10-29T15:28:02.350Z,101854.75
2022-10-29T15:30:37.086Z,101851.41
2022-10-29T15:33:19.204Z,101844.63
2022-10-29T15:36:04.024Z,101838.78
2022-10-29T15:38:52.260Z,101845.25
2022-10-29T15:41:39.565Z,101836.59
2022-10-29T15:44:40.886Z,101815.66
2022-10-29T15:47:28.198Z,101833.50
2022-10-29T15:50:00.177Z,101833.63
2022-10-29T15:52:41.825Z,101823.16
2022-10-29T15:55:26.008Z,101826.84
2022-10-29T15:58:25.211Z,101827.88
2022-10-29T16:00:57.561Z,101821.81
2022-10-29T16:03:31.272Z,101826.34
2022-10-29T16:06:07.728Z,101824.56
2022-10-29T16:08:55.478Z,101832.63
2022-10-29T16:11:28.166Z,101825.63
2022-10-29T16:14:00.498Z,101828.34
2022-10-29T16:16:38.181Z,101814.34
2022-10-29T16:19:10.196Z,101814.44
2022-10-29T16:21:42.281Z,101812.81
2022-10-29T16:24:15.728Z,101803.25
2022-10-29T16:26:47.680Z,101810.38
2022-10-29T16:29:19.668Z,101804.19
2022-10-29T16:31:51.896Z,101810.38
2022-10-29T16:34:24.796Z,101809.47
2022-10-29T16:36:56.892Z,101810.47
2022-10-29T16:39:28.853Z,101814.00
2022-10-29T16:42:00.774Z,101815.91
2022-10-29T16:44:32.738Z,101830.91
2022-10-29T16:47:04.637Z,101823.94
2022-10-29T16:49:36.575Z,101826.63
2022-10-29T16:52:11.664Z,101822.19
2022-10-29T16:54:43.906Z,101824.09
2022-10-29T16:57:15.808Z,101830.28
2022-10-29T16:59:47.762Z,101822.38
2022-10-29T17:02:20.201Z,101819.91
2022-10-29T17:04:52.177Z,101818.09
2022-10-29T17:07:24.140Z,101812.78
2022-10-29T17:09:56.049Z,101812.78
2022-10-29T17:12:28.280Z,101816.38
2022-10-29T17:15:00.229Z,101819.03
2022-10-29T17:17:32.291Z,101827.94
2022-10-29T17:20:05.516Z,101813.00
2022-10-29T17:22:37.640Z,101806.00
2022-10-29T17:25:10.776Z,101815.78
2022-10-29T17:27:42.905Z,101822.88
2022-10-29T17:30:15.021Z,101818.53
2022-10-29T17:32:46.969Z,101820.38
2022-10-29T17:35:18.899Z,101831.97
2022-10-29T17:37:50.816Z,101829.41
2022-10-29T17:40:24.155Z,101830.34
2022-10-29T17:42:56.383Z,101834.75
2022-10-29T17:45:28.584Z,101832.16
2022-10-29T17:48:00.929Z,101833.91
2022-10-29T17:50:32.944Z,101837.50
2022-10-29T17:53:05.182Z,101833.16
2022-10-29T17:55:37.132Z,101835.84
2022-10-29T17:58:11.075Z,101835.88
2022-10-29T18:00:45.859Z,101830.63
2022-10-29T18:03:18.169Z,101835.03
2022-10-29T18:05:50.073Z,101828.88
2022-10-29T18:08:21.965Z,101829.75
2022-10-29T18:10:57.623Z,101831.47
2022-10-29T18:13:35.785Z,101841.13
2022-10-29T18:16:10.128Z,101827.94
2022-10-29T18:18:54.508Z,101826.25
2022-10-29T18:21:33.822Z,101826.34
2022-10-29T18:24:06.446Z,101835.22
2022-10-29T18:26:38.564Z,101835.25
2022-10-29T18:29:12.199Z,101833.53
2022-10-29T18:31:47.223Z,101838.88
2022-10-29T18:34:19.214Z,101828.28
2022-10-29T18:36:51.160Z,101830.88
2022-10-29T18:39:23.109Z,101830.94
2022-10-29T18:41:55.107Z,101830.97
2022-10-29T18:44:27.221Z,101831.00
2022-10-29T18:46:59.366Z,101821.31
2022-10-29T18:49:31.313Z,101819.63
2022-10-29T18:52:03.437Z,101828.47
2022-10-29T18:54:35.486Z,101826.75
2022-10-29T18:57:07.496Z,101827.69
2022-10-29T18:59:39.517Z,101832.13
2022-10-29T19:02:12.430Z,101826.81
2022-10-29T19:04:44.604Z,101818.03
2022-10-29T19:07:16.518Z,101828.63
2022-10-29T19:09:48.418Z,101833.03
2022-10-29T19:12:20.377Z,101831.28
2022-10-29T19:14:52.490Z,101821.66
2022-10-29T19:17:24.457Z,101819.97
2022-10-29T19:19:56.354Z,101816.44
2022-10-29T19:22:28.372Z,101809.44
2022-10-29T19:25:00.324Z,101811.25
2022-10-29T19:27:33.381Z,101807.72
2022-10-29T19:30:05.941Z,101802.44
2022-10-29T19:32:37.901Z,101810.47
2022-10-29T19:35:10.156Z,101796.50
2022-10-29T19:37:42.131Z,101799.25
2022-10-29T19:40:14.049Z,101798.28
2022-10-29T19:42:48.553Z,101790.44
2022-10-29T19:45:21.969Z,101795.66
2022-10-29T19:47:54.091Z,101793.06
2022-10-29T19:50:26.245Z,101794.84
2022-10-29T19:52:58.548Z,101800.25
2022-10-29T19:55:31.042Z,101795.88
2022-10-29T19:58:02.997Z,101794.13
2022-10-29T20:00:35.045Z,101796.81
2022-10-29T20:03:06.986Z,101794.19
2022-10-29T20:05:40.463Z,101787.25
2022-10-29T20:08:15.951Z,101788.09
2022-10-29T20:10:59.722Z,101789.00
2022-10-29T20:13:31.780Z,101797.03
2022-10-29T20:16:14.485Z,101783.13
2022-10-29T20:18:47.993Z,101779.59
2022-10-29T20:21:19.964Z,101784.00
2022-10-29T20:23:51.945Z,101776.09
2022-10-29T20:26:24.055Z,101775.16
2022-10-29T20:28:57.273Z,101776.06
2022-10-29T20:31:31.584Z,101780.38
2022-10-29T20:34:04.893Z,101776.97
2022-10-29T20:36:36.957Z,101776.09
2022-10-29T20:39:09.135Z,101769.91
2022-10-29T20:41:44.188Z,101769.97
2022-10-29T20:44:16.500Z,101765.59
2022-10-29T20:46:48.456Z,101771.88
2022-10-29T20:49:20.389Z,101763.09
2022-10-29T20:51:52.319Z,101757.75
2022-10-29T20:54:24.427Z,101758.72
2022-10-29T20:56:56.388Z,101760.63
2022-10-29T20:59:28.343Z,101754.53
2022-10-29T21:02:00.441Z,101749.16
2022-10-29T21:04:32.563Z,101748.25
2022-10-29T21:07:04.471Z,101743.81
2022-10-29T21:09:36.426Z,101742.00
2022-10-29T21:12:08.401Z,101739.56
2022-10-29T21:14:40.404Z,101744.84
2022-10-29T21:17:12.887Z,101747.47
2022-10-29T21:19:44.849Z,101740.41
2022-10-29T21:22:19.155Z,101744.72
2022-10-29T21:24:51.281Z,101741.28
2022-10-29T21:27:23.304Z,101738.59
2022-10-29T21:29:55.267Z,101736.88
2022-10-29T21:32:27.211Z,101736.78
2022-10-29T21:34:59.193Z,101737.66
2022-10-29T21:37:31.115Z,101735.81
2022-10-29T21:40:06.041Z,101734.91
2022-10-29T21:42:38.732Z,101737.53
2022-10-29T21:45:10.954Z,101740.19
2022-10-29T21:47:42.924Z,101729.66
2022-10-29T21:50:15.084Z,101729.69
2022-10-29T21:52:46.984Z,101733.22
2022-10-29T21:55:18.886Z,101734.94
2022-10-29T21:57:50.872Z,101727.91
2022-10-29T22:00:23.336Z,101729.75
2022-10-29T22:02:57.031Z,101730.59
2022-10-29T22:05:32.120Z,101730.63
2022-10-29T22:08:04.530Z,101723.59
2022-10-29T22:10:36.542Z,101721.00
2022-10-29T22:13:11.849Z,101717.50
2022-10-29T22:15:46.350Z,101718.41
2022-10-29T22:18:18.237Z,101715.75
2022-10-29T22:20:50.181Z,101719.31
2022-10-29T22:23:22.382Z,101719.34
2022-10-29T22:25:54.457Z,101713.19
2022-10-29T22:28:26.428Z,101715.84
2022-10-29T22:31:00.615Z,101727.31
2022-10-29T22:33:33.968Z,101736.13
2022-10-29T22:36:21.702Z,101750.19
2022-10-29T22:38:59.475Z,101762.50
2022-10-29T22:41:31.776Z,101774.81
2022-10-29T22:44:04.069Z,101773.09
2022-10-29T22:46:36.107Z,101769.56
2022-10-29T22:49:08.045Z,101773.09
2022-10-29T22:51:40.103Z,101766.09
2022-10-29T22:54:12.053Z,101767.06
2022-10-29T22:56:44.023Z,101769.69
2022-10-29T22:59:15.898Z,101768.78
2022-10-29T23:01:47.948Z,101760.94
2022-10-29T23:04:19.998Z,101755.72
2022-10-29T23:06:52.035Z,101764.56
2022-10-29T23:09:24.103Z,101761.13
2022-10-29T23:11:56.132Z,101758.50
2022-10-29T23:14:28.065Z,101747.06
2022-10-29T23:17:00.565Z,101750.59
2022-10-29T23:19:32.716Z,101747.94
2022-10-29T23:22:04.692Z,101736.53
2022-10-29T23:24:36.748Z,101734.78
2022-10-29T23:27:08.706Z,101732.19
2022-10-29T23:29:40.641Z,101731.38
2022-10-29T23:32:15.686Z,101726.09
2022-10-29T23:34:47.610Z,101720.78
2022-10-29T23:37:19.603Z,101712.03
2022-10-29T23:39:51.534Z,101717.34
2022-10-29T23:42:23.613Z,101716.56
2022-10-29T23:44:55.512Z,101708.72
2022-10-29T23:47:27.480Z,101711.34
2022-10-29T23:49:59.388Z,101715.69
2022-10-29T23:52:31.337Z,101711.44
2022-10-29T23:55:03.393Z,101713.19
2022-10-29T23:57:35.374Z,101714.84
